Thornton, Iowa
Current Conditions -  °F | °C
As of 5:53 AM on Monday 20 Oct 2014 (Local Time) from KMCW Reporting Station
Clear Clear  
Wind Chill: 36°   Ceiling: Unl
Heat Index: 40°   Visibility: 10mi
Dew Point: 38°   Wind: 6mph
Humidity: 93%   Direction: 290°WNW
Pressure: 29.98"   Gusts: NA
Location:  42.94°N, 93.38°W
Report Text: KMCW 201053Z AUTO 29005KT 10SM CLR 04/03 A2998 RMK AO2 SLP148 T00440033
Loading
Personal Weather Stations






























Interactive Weather Map
Tropical Storm Tracking
New forecast layout! Learn more

10-Day Weather Forecast

Advertisements
Track Severe Weather on mobile